Terminal Aerodrome Forecast
Issued by NWS Denver/Boulder, CO

Home | Current Version | Previous Version | Text Only | Print | Product List | Glossary On
Versions: 1 2 3 4 5 6 7 8 9 10 11 12 13 14 15 16 17 18 19 20 21 22 23 24 25 26 27 28 29 30 31 32 33 34 35 36 37 38 39 40 41 42 43 44 45 46 47 48 49 50
000
FTUS45 KBOU 231245 AAB
TAFDEN
TAF AMD
KDEN 231245Z 2313/2418 04020G28KT P6SM VCSH BKN025 OVC040
      TEMPO 2313/2314 6SM -SHRA BKN020 OVC030
     FM231600 05012KT P6SM SCT030 OVC050
     FM232000 08010KT P6SM SCT040 BKN060
     FM240200 14009KT P6SM BKN060
     FM240900 17007KT P6SM SCT060
     FM241500 11007KT P6SM FEW060=

USA.gov is the U.S. government's official web portal to all federal, state and local government web resources and services.